Time;durP1;ratioP1;P1;durP2;ratioP2;P2;SDS_P1;SDS_P2;PMS_P1;PMS_P2;Temp;Humidity;BMP_temperature;BMP_pressure;BME280_temperature;BME280_humidity;BME280_pressure;Samples;Min_cycle;Max_cycle;Signal;HPM_P1;HPM_P2
2023/04/05 00:00:58;;;;;;;1.00;0.90;;;;;;;;;;109295;1254;60608;-53
2023/04/05 00:03:27;;;;;;;1.20;1.10;;;;;;;;;;109299;1251;59603;-54
2023/04/05 00:05:57;;;;;;;1.00;0.90;;;;;;;;;;106332;1251;60501;-51
2023/04/05 00:08:29;;;;;;;1.10;0.90;;;;;;;;;;109334;1251;61174;-53
2023/04/05 00:10:56;;;;;;;1.00;0.90;;;;;;;;;;109251;1253;58901;-53
2023/04/05 00:13:24;;;;;;;1.40;1.10;;;;;;;;;;109239;1251;60767;-53
2023/04/05 00:15:57;;;;;;;2.10;1.00;;;;;;;;;;109251;1254;58824;-54
2023/04/05 00:18:25;;;;;;;1.10;0.90;;;;;;;;;;109255;1251;58890;-52
2023/04/05 00:20:53;;;;;;;1.00;0.90;;;;;;;;;;109268;1251;62150;-54
2023/04/05 00:23:22;;;;;;;1.00;0.90;;;;;;;;;;106782;1251;60489;-54
2023/04/05 00:25:50;;;;;;;1.30;1.10;;;;;;;;;;106034;1254;60855;-52
2023/04/05 00:28:18;;;;;;;1.30;1.20;;;;;;;;;;105730;1256;60451;-53
2023/04/05 00:30:47;;;;;;;1.10;1.00;;;;;;;;;;105782;1251;60342;-52
2023/04/05 00:33:15;;;;;;;1.10;1.00;;;;;;;;;;105680;1251;62314;-52
2023/04/05 00:35:43;;;;;;;1.10;1.00;;;;;;;;;;105639;1257;60349;-52
2023/04/05 00:38:11;;;;;;;1.00;0.80;;;;;;;;;;106240;1256;60482;-53
2023/04/05 00:40:40;;;;;;;1.70;1.00;;;;;;;;;;105699;1255;60599;-53
2023/04/05 00:43:09;;;;;;;1.80;1.20;;;;;;;;;;106640;1257;60414;-53
2023/04/05 00:45:37;;;;;;;1.20;1.00;;;;;;;;;;105667;1254;61377;-52
2023/04/05 00:48:07;;;;;;;1.10;1.00;;;;;;;;;;106552;1256;60393;-51
2023/04/05 00:50:35;;;;;;;1.00;0.80;;;;;;;;;;106663;1251;60646;-52
2023/04/05 00:53:03;;;;;;;1.00;0.80;;;;;;;;;;105621;1257;60584;-53
2023/04/05 00:55:32;;;;;;;0.90;0.70;;;;;;;;;;105401;1254;60425;-53
2023/04/05 00:58:01;;;;;;;0.80;0.70;;;;;;;;;;106622;1254;61508;-54
2023/04/05 01:00:29;;;;;;;0.80;0.80;;;;;;;;;;106141;1257;60456;-55
2023/04/05 01:03:00;;;;;;;0.80;0.80;;;;;;;;;;106397;1256;60939;-52
2023/04/05 01:05:35;;;;;;;0.90;0.80;;;;;;;;;;105486;1253;60437;-53
2023/04/05 01:08:16;;;;;;;1.90;0.90;;;;;;;;;;105451;1251;60334;-53
2023/04/05 01:10:47;;;;;;;2.40;0.80;;;;;;;;;;105480;1254;62742;-53
2023/04/05 01:13:16;;;;;;;2.10;0.90;;;;;;;;;;105566;1251;60396;-51
2023/04/05 01:15:44;;;;;;;1.10;0.60;;;;;;;;;;105815;1255;60925;-53
2023/04/05 01:18:13;;;;;;;0.80;0.70;;;;;;;;;;105530;1251;60448;-53
2023/04/05 01:20:43;;;;;;;1.00;0.60;;;;;;;;;;105754;1251;60535;-52
2023/04/05 01:23:18;;;;;;;1.90;0.90;;;;;;;;;;108199;1254;61288;-51
2023/04/05 01:25:46;;;;;;;1.20;0.70;;;;;;;;;;107232;1251;60446;-52
2023/04/05 01:28:20;;;;;;;1.70;0.70;;;;;;;;;;105660;1267;60646;-45
2023/04/05 01:30:48;;;;;;;0.80;0.70;;;;;;;;;;105570;1253;61228;-48
2023/04/05 01:33:19;;;;;;;0.80;0.70;;;;;;;;;;105740;1251;60575;-53
2023/04/05 01:36:02;;;;;;;1.00;0.90;;;;;;;;;;105827;1251;62131;-50
2023/04/05 01:38:30;;;;;;;0.50;0.50;;;;;;;;;;108326;1253;59126;-49
2023/04/05 01:40:58;;;;;;;0.70;0.50;;;;;;;;;;108988;1253;60469;-51
2023/04/05 01:43:31;;;;;;;0.50;0.50;;;;;;;;;;107963;1251;60483;-50
2023/04/05 01:46:02;;;;;;;0.60;0.50;;;;;;;;;;105660;1256;60339;-50
2023/04/05 01:48:31;;;;;;;0.60;0.60;;;;;;;;;;105865;1251;62116;-51
2023/04/05 01:51:00;;;;;;;0.50;0.50;;;;;;;;;;108666;1254;60402;-47
2023/04/05 01:53:28;;;;;;;0.70;0.60;;;;;;;;;;105597;1254;60454;-49
2023/04/05 01:56:00;;;;;;;0.60;0.60;;;;;;;;;;105522;1257;60530;-51
2023/04/05 01:58:29;;;;;;;0.60;0.60;;;;;;;;;;106786;1251;60399;-49
2023/04/05 02:00:57;;;;;;;0.70;0.70;;;;;;;;;;105438;1251;61532;-48
2023/04/05 02:03:25;;;;;;;0.70;0.60;;;;;;;;;;105528;1254;60481;-50
2023/04/05 02:05:53;;;;;;;1.50;1.00;;;;;;;;;;106000;1257;60539;-47
2023/04/05 02:08:24;;;;;;;1.40;0.70;;;;;;;;;;105772;1256;60411;-49
2023/04/05 02:10:52;;;;;;;0.50;0.50;;;;;;;;;;105785;1251;60583;-51
2023/04/05 02:13:24;;;;;;;0.70;0.70;;;;;;;;;;108091;1253;62012;-50
2023/04/05 02:15:52;;;;;;;0.50;0.50;;;;;;;;;;109194;1251;59522;-50
2023/04/05 02:18:21;;;;;;;0.70;0.60;;;;;;;;;;109136;1255;60610;-48
2023/04/05 02:20:50;;;;;;;0.60;0.60;;;;;;;;;;106524;1256;60542;-53
2023/04/05 02:23:18;;;;;;;1.10;0.70;;;;;;;;;;105756;1254;60445;-48
2023/04/05 02:25:46;;;;;;;0.60;0.50;;;;;;;;;;109243;1251;62271;-50
2023/04/05 02:28:15;;;;;;;0.80;0.60;;;;;;;;;;109114;1251;59338;-51
2023/04/05 02:30:42;;;;;;;1.00;0.60;;;;;;;;;;109177;1251;59797;-50
2023/04/05 02:33:11;;;;;;;0.90;0.60;;;;;;;;;;109266;1251;59459;-49
2023/04/05 02:35:41;;;;;;;0.80;0.60;;;;;;;;;;109093;1256;58410;-50
2023/04/05 02:38:11;;;;;;;0.70;0.60;;;;;;;;;;108227;1252;61004;-53
2023/04/05 02:40:40;;;;;;;0.90;0.60;;;;;;;;;;109202;1250;58284;-50
2023/04/05 02:43:09;;;;;;;0.60;0.60;;;;;;;;;;109094;1251;60674;-54
2023/04/05 02:45:37;;;;;;;0.70;0.60;;;;;;;;;;109116;1251;59824;-51
2023/04/05 02:48:05;;;;;;;0.60;0.60;;;;;;;;;;109130;1251;58645;-53
2023/04/05 02:50:33;;;;;;;0.50;0.50;;;;;;;;;;109214;1251;62190;-50
2023/04/05 02:53:07;;;;;;;0.50;0.50;;;;;;;;;;109195;1253;58374;-50
2023/04/05 02:55:35;;;;;;;0.50;0.50;;;;;;;;;;109194;1251;59523;-50
2023/04/05 02:58:06;;;;;;;1.10;0.50;;;;;;;;;;109166;1251;59302;-50
2023/04/05 03:00:41;;;;;;;0.90;0.50;;;;;;;;;;109069;1253;58185;-53
2023/04/05 03:03:10;;;;;;;0.70;0.60;;;;;;;;;;109244;1251;60934;-50
2023/04/05 03:05:42;;;;;;;0.70;0.60;;;;;;;;;;109270;1251;58670;-49
2023/04/05 03:08:17;;;;;;;0.50;0.50;;;;;;;;;;109234;1251;59454;-50
2023/04/05 03:10:50;;;;;;;0.50;0.50;;;;;;;;;;109185;1251;59424;-50
2023/04/05 03:13:18;;;;;;;0.50;0.40;;;;;;;;;;106284;1257;60449;-46
2023/04/05 03:15:47;;;;;;;0.80;0.50;;;;;;;;;;105362;1257;61962;-53
2023/04/05 03:18:16;;;;;;;9.90;0.70;;;;;;;;;;105423;1251;131250;-51
2023/04/05 03:21:31;;;;;;;2.30;0.60;;;;;;;;;;102953;1286;601041;-48
2023/04/05 03:24:05;;;;;;;1.20;1.00;;;;;;;;;;105532;1267;59139;-48
2023/04/05 03:26:37;;;;;;;0.70;0.60;;;;;;;;;;105898;1269;59076;-49
2023/04/05 03:29:05;;;;;;;0.90;0.70;;;;;;;;;;105575;1264;60536;-50
2023/04/05 03:31:35;;;;;;;0.80;0.50;;;;;;;;;;107272;1263;58950;-51
2023/04/05 03:34:06;;;;;;;1.90;0.70;;;;;;;;;;104560;1269;248559;-51
2023/04/05 03:36:43;;;;;;;0.60;0.60;;;;;;;;;;105577;1263;59022;-51
2023/04/05 03:39:19;;;;;;;1.00;0.60;;;;;;;;;;105212;1263;59059;-50
2023/04/05 03:41:48;;;;;;;1.50;0.70;;;;;;;;;;105066;1264;59239;-47
2023/04/05 03:44:16;;;;;;;1.10;0.60;;;;;;;;;;104885;1266;59115;-50
2023/04/05 03:46:44;;;;;;;1.40;0.60;;;;;;;;;;104921;1266;60955;-47
2023/04/05 03:49:15;;;;;;;0.70;0.60;;;;;;;;;;105901;1264;59813;-47
2023/04/05 03:51:44;;;;;;;0.70;0.50;;;;;;;;;;105978;1265;59778;-48
2023/04/05 03:54:12;;;;;;;0.70;0.60;;;;;;;;;;105055;1263;61036;-48
2023/04/05 03:56:41;;;;;;;0.40;0.40;;;;;;;;;;105078;1264;59726;-50
2023/04/05 03:59:17;;;;;;;0.40;0.40;;;;;;;;;;105156;1263;62179;-51
2023/04/05 04:01:45;;;;;;;0.50;0.40;;;;;;;;;;105562;1262;59727;-50
2023/04/05 04:04:14;;;;;;;0.50;0.50;;;;;;;;;;105130;1260;59730;-49
2023/04/05 04:06:46;;;;;;;0.50;0.40;;;;;;;;;;105423;1263;61034;-49
2023/04/05 04:09:18;;;;;;;0.30;0.30;;;;;;;;;;104977;1263;59996;-53
2023/04/05 04:11:46;;;;;;;0.60;0.50;;;;;;;;;;105695;1261;60743;-50
2023/04/05 04:14:18;;;;;;;0.50;0.40;;;;;;;;;;105725;1266;59669;-49
2023/04/05 04:17:25;;;;;;;0.50;0.50;;;;;;;;;;105026;1257;59702;-50
2023/04/05 04:20:18;;;;;;;0.50;0.40;;;;;;;;;;105125;1260;61634;-48
2023/04/05 04:23:14;;;;;;;0.40;0.40;;;;;;;;;;105113;1260;61132;-53
2023/04/05 04:26:06;;;;;;;0.50;0.40;;;;;;;;;;105113;1260;61767;-49
2023/04/05 04:28:53;;;;;;;0.40;0.40;;;;;;;;;;105142;1260;59847;-48
2023/04/05 04:31:44;;;;;;;0.40;0.40;;;;;;;;;;104990;1260;59636;-47
2023/04/05 04:34:33;;;;;;;0.40;0.40;;;;;;;;;;105343;1260;61094;-47
2023/04/05 04:37:16;;;;;;;0.30;0.30;;;;;;;;;;105247;1264;59572;-50
2023/04/05 04:40:07;;;;;;;0.40;0.40;;;;;;;;;;105090;1264;60813;-52
2023/04/05 04:42:58;;;;;;;0.50;0.50;;;;;;;;;;105552;1264;59730;-49
2023/04/05 04:45:54;;;;;;;2.30;0.40;;;;;;;;;;104925;1260;59782;-49
2023/04/05 04:48:36;;;;;;;0.50;0.40;;;;;;;;;;104578;1260;61309;-49
2023/04/05 04:51:13;;;;;;;0.60;0.40;;;;;;;;;;105016;1265;59690;-48
2023/04/05 04:53:41;;;;;;;2.10;0.50;;;;;;;;;;104622;1261;60701;-47
2023/04/05 04:56:10;;;;;;;0.50;0.40;;;;;;;;;;104429;1260;60228;-51
2023/04/05 04:58:39;;;;;;;0.60;0.30;;;;;;;;;;104438;1260;59627;-47
2023/04/05 05:01:08;;;;;;;0.40;0.40;;;;;;;;;;104666;1260;60474;-49
2023/04/05 05:03:37;;;;;;;0.40;0.40;;;;;;;;;;108627;1263;58115;-48
2023/04/05 05:06:06;;;;;;;0.50;0.40;;;;;;;;;;108648;1260;59899;-49
2023/04/05 05:08:36;;;;;;;0.70;0.50;;;;;;;;;;105359;1263;59676;-49
2023/04/05 05:11:06;;;;;;;0.70;0.50;;;;;;;;;;105044;1265;59647;-52
2023/04/05 05:13:35;;;;;;;0.60;0.50;;;;;;;;;;105718;1260;61024;-51
2023/04/05 05:16:03;;;;;;;0.80;0.60;;;;;;;;;;106414;1265;60796;-50
2023/04/05 05:18:32;;;;;;;0.70;0.50;;;;;;;;;;106296;1261;60834;-48
2023/04/05 05:21:00;;;;;;;0.50;0.50;;;;;;;;;;105557;1261;59727;-48
2023/04/05 05:23:28;;;;;;;1.50;0.50;;;;;;;;;;105475;1258;59708;-49
2023/04/05 05:25:59;;;;;;;1.00;0.40;;;;;;;;;;105147;1258;61812;-52
2023/04/05 05:28:27;;;;;;;1.00;0.40;;;;;;;;;;104536;1261;59593;-48
2023/04/05 05:30:55;;;;;;;0.50;0.40;;;;;;;;;;104806;1262;60614;-47
2023/04/05 05:33:24;;;;;;;0.50;0.40;;;;;;;;;;104640;1261;59688;-50
2023/04/05 05:35:52;;;;;;;0.50;0.40;;;;;;;;;;108656;1261;59058;-51
2023/04/05 05:38:21;;;;;;;1.90;0.60;;;;;;;;;;108684;1257;60815;-52
2023/04/05 05:40:53;;;;;;;1.40;0.50;;;;;;;;;;108749;1260;58269;-50
2023/04/05 05:43:21;;;;;;;1.10;0.40;;;;;;;;;;108750;1259;60791;-52
2023/04/05 05:45:49;;;;;;;0.90;0.50;;;;;;;;;;107519;1259;59711;-49
2023/04/05 05:48:18;;;;;;;0.90;0.50;;;;;;;;;;105261;1258;59705;-54
2023/04/05 05:50:47;;;;;;;1.30;0.60;;;;;;;;;;105266;1258;61360;-49
2023/04/05 05:53:15;;;;;;;2.20;1.00;;;;;;;;;;105720;1253;59889;-49
2023/04/05 05:55:43;;;;;;;1.40;0.70;;;;;;;;;;109202;1251;60721;-52
2023/04/05 05:58:11;;;;;;;0.60;0.50;;;;;;;;;;109135;1251;57802;-50
2023/04/05 06:00:39;;;;;;;0.50;0.40;;;;;;;;;;109121;1251;57992;-48
2023/04/05 06:03:13;;;;;;;0.70;0.50;;;;;;;;;;109113;1251;60269;-48
2023/04/05 06:05:42;;;;;;;0.50;0.40;;;;;;;;;;109122;1251;58582;-49
2023/04/05 06:08:10;;;;;;;0.50;0.40;;;;;;;;;;109191;1251;59707;-52
2023/04/05 06:10:38;;;;;;;0.60;0.50;;;;;;;;;;108306;1256;59695;-49
2023/04/05 06:13:07;;;;;;;0.50;0.40;;;;;;;;;;105758;1256;59495;-53
2023/04/05 06:15:35;;;;;;;0.40;0.30;;;;;;;;;;105650;1252;61596;-45
2023/04/05 06:18:03;;;;;;;0.50;0.40;;;;;;;;;;105186;1251;59939;-53
2023/04/05 06:20:31;;;;;;;0.70;0.60;;;;;;;;;;105053;1251;59720;-49
2023/04/05 06:23:00;;;;;;;0.70;0.40;;;;;;;;;;105222;1251;59589;-53
2023/04/05 06:25:29;;;;;;;0.50;0.40;;;;;;;;;;105990;1251;59592;-49
2023/04/05 06:27:57;;;;;;;1.20;0.30;;;;;;;;;;105911;1254;61343;-50
2023/04/05 06:30:27;;;;;;;0.50;0.30;;;;;;;;;;105614;1256;59756;-53
2023/04/05 06:32:55;;;;;;;0.30;0.30;;;;;;;;;;106748;1251;59691;-50
2023/04/05 06:35:23;;;;;;;0.90;0.40;;;;;;;;;;105569;1254;59730;-50
2023/04/05 06:37:52;;;;;;;0.30;0.30;;;;;;;;;;105611;1251;59603;-47
2023/04/05 06:40:20;;;;;;;0.40;0.30;;;;;;;;;;105674;1252;61144;-50
2023/04/05 06:42:48;;;;;;;0.60;0.40;;;;;;;;;;105725;1255;59933;-51
2023/04/05 06:45:20;;;;;;;0.40;0.40;;;;;;;;;;105637;1251;60170;-53
2023/04/05 06:47:48;;;;;;;0.90;0.40;;;;;;;;;;105656;1251;59497;-54
2023/04/05 06:50:16;;;;;;;2.50;0.60;;;;;;;;;;105796;1257;59655;-50
2023/04/05 06:52:44;;;;;;;0.60;0.50;;;;;;;;;;105713;1256;61214;-48
2023/04/05 06:55:13;;;;;;;0.60;0.50;;;;;;;;;;105831;1256;61026;-48
2023/04/05 06:57:41;;;;;;;0.80;0.50;;;;;;;;;;105783;1251;60791;-48
2023/04/05 07:00:12;;;;;;;1.00;0.70;;;;;;;;;;105622;1256;59666;-52
2023/04/05 07:02:41;;;;;;;0.90;0.70;;;;;;;;;;105767;1251;59529;-49
2023/04/05 07:05:10;;;;;;;2.90;0.70;;;;;;;;;;105764;1251;61524;-50
2023/04/05 07:07:39;;;;;;;1.40;0.70;;;;;;;;;;106308;1251;60088;-48
2023/04/05 07:10:08;;;;;;;0.90;0.70;;;;;;;;;;105885;1251;60848;-50
2023/04/05 07:12:36;;;;;;;1.20;0.70;;;;;;;;;;108273;1251;58436;-52
2023/04/05 07:15:05;;;;;;;1.80;0.60;;;;;;;;;;108090;1255;57662;-48
2023/04/05 07:17:33;;;;;;;0.80;0.70;;;;;;;;;;107065;1251;61526;-52
2023/04/05 07:20:01;;;;;;;1.30;0.70;;;;;;;;;;105795;1256;59540;-48
2023/04/05 07:22:30;;;;;;;1.50;0.70;;;;;;;;;;106901;1254;60636;-50
2023/04/05 07:24:58;;;;;;;1.00;0.80;;;;;;;;;;105905;1256;59714;-50
2023/04/05 07:27:26;;;;;;;1.00;0.90;;;;;;;;;;109206;1254;59183;-51
2023/04/05 07:29:56;;;;;;;2.30;0.80;;;;;;;;;;106458;1251;61073;-52
2023/04/05 07:32:24;;;;;;;1.30;0.90;;;;;;;;;;106515;1254;59048;-49
2023/04/05 07:34:52;;;;;;;1.80;0.90;;;;;;;;;;105585;1251;60888;-50
2023/04/05 07:37:20;;;;;;;1.00;0.80;;;;;;;;;;107958;1251;60533;-52
2023/04/05 07:39:48;;;;;;;0.80;0.80;;;;;;;;;;109141;1251;59818;-53
2023/04/05 07:42:17;;;;;;;1.90;0.90;;;;;;;;;;109071;1251;62390;-53
2023/04/05 07:44:45;;;;;;;0.80;0.70;;;;;;;;;;109129;1255;58465;-52
2023/04/05 07:47:13;;;;;;;1.00;0.80;;;;;;;;;;107949;1256;59840;-47
2023/04/05 07:49:41;;;;;;;0.90;0.70;;;;;;;;;;109134;1256;58900;-53
2023/04/05 07:52:09;;;;;;;1.20;0.80;;;;;;;;;;109261;1251;59030;-51
2023/04/05 07:54:42;;;;;;;1.10;0.70;;;;;;;;;;106360;1251;63405;-47
2023/04/05 07:57:18;;;;;;;1.40;1.30;;;;;;;;;;105646;1251;60467;-51
2023/04/05 07:59:47;;;;;;;1.50;1.00;;;;;;;;;;105607;1257;60802;-47
2023/04/05 08:02:14;;;;;;;0.80;0.70;;;;;;;;;;106338;1251;60536;-49
2023/04/05 08:04:42;;;;;;;0.90;0.80;;;;;;;;;;105071;1257;60415;-47
2023/04/05 08:07:10;;;;;;;1.40;1.00;;;;;;;;;;105135;1256;62228;-46
2023/04/05 08:09:38;;;;;;;2.00;0.90;;;;;;;;;;105721;1255;60366;-51
2023/04/05 08:12:10;;;;;;;1.20;0.90;;;;;;;;;;105739;1257;60811;-46
2023/04/05 08:14:38;;;;;;;0.90;0.70;;;;;;;;;;109249;1251;58409;-51
2023/04/05 08:17:06;;;;;;;1.30;0.90;;;;;;;;;;109111;1251;58177;-51
2023/04/05 08:19:34;;;;;;;1.70;1.00;;;;;;;;;;109155;1251;62299;-52
2023/04/05 08:22:02;;;;;;;1.60;0.80;;;;;;;;;;109317;1251;59450;-49
2023/04/05 08:24:30;;;;;;;0.90;0.80;;;;;;;;;;109361;1253;60744;-52
2023/04/05 08:26:58;;;;;;;1.10;0.90;;;;;;;;;;109251;1254;58948;-52
2023/04/05 08:29:28;;;;;;;1.70;1.00;;;;;;;;;;109328;1251;58150;-52
2023/04/05 08:31:57;;;;;;;3.80;1.20;;;;;;;;;;109316;1251;61986;-53
2023/04/05 08:34:25;;;;;;;1.20;0.90;;;;;;;;;;109234;1254;58231;-52
2023/04/05 08:36:59;;;;;;;2.10;1.20;;;;;;;;;;109281;1251;60535;-52
2023/04/05 08:39:28;;;;;;;2.40;1.20;;;;;;;;;;109172;1251;59769;-52
2023/04/05 08:42:00;;;;;;;1.30;1.10;;;;;;;;;;109241;1251;59230;-53
2023/04/05 08:44:29;;;;;;;1.70;0.90;;;;;;;;;;109174;1259;60826;-53
2023/04/05 08:46:59;;;;;;;2.10;1.40;;;;;;;;;;109292;1251;59787;-53
2023/04/05 08:49:28;;;;;;;1.60;1.00;;;;;;;;;;109314;1251;59739;-52
2023/04/05 08:51:55;;;;;;;1.40;1.10;;;;;;;;;;109311;1251;58147;-53
2023/04/05 08:54:24;;;;;;;1.20;1.00;;;;;;;;;;109202;1251;58159;-53
2023/04/05 08:56:53;;;;;;;4.60;1.20;;;;;;;;;;106261;1259;62549;-50
2023/04/05 08:59:21;;;;;;;1.80;1.30;;;;;;;;;;105482;1251;60924;-52
2023/04/05 09:01:51;;;;;;;3.30;1.50;;;;;;;;;;105918;1257;60300;-51
2023/04/05 09:04:23;;;;;;;1.30;1.10;;;;;;;;;;107584;1255;59625;-50
2023/04/05 09:06:51;;;;;;;4.10;1.50;;;;;;;;;;105650;1256;60331;-52
2023/04/05 09:09:19;;;;;;;1.60;1.50;;;;;;;;;;107233;1256;63379;-51
2023/04/05 09:11:48;;;;;;;1.50;1.40;;;;;;;;;;105813;1256;60396;-53
2023/04/05 09:14:16;;;;;;;1.80;1.70;;;;;;;;;;105935;1256;60872;-50
2023/04/05 09:16:45;;;;;;;1.50;1.30;;;;;;;;;;106359;1260;60402;-50
2023/04/05 09:19:13;;;;;;;4.00;1.20;;;;;;;;;;106916;1256;60420;-52
2023/04/05 09:22:08;;;;;;;2.10;1.40;;;;;;;;;;106513;1254;61849;-51
2023/04/05 09:24:42;;;;;;;3.00;1.50;;;;;;;;;;105654;1259;60721;-53
2023/04/05 09:27:11;;;;;;;2.00;1.30;;;;;;;;;;106039;1257;61270;-51
2023/04/05 09:29:42;;;;;;;1.40;1.20;;;;;;;;;;105635;1256;60543;-50
2023/04/05 09:32:10;;;;;;;1.30;1.20;;;;;;;;;;105595;1256;60590;-48
2023/04/05 09:34:39;;;;;;;1.30;1.20;;;;;;;;;;105892;1256;61814;-52
2023/04/05 09:37:15;;;;;;;2.50;1.60;;;;;;;;;;105961;1257;60354;-51
2023/04/05 09:39:44;;;;;;;2.90;1.80;;;;;;;;;;105686;1257;60630;-51
2023/04/05 09:42:18;;;;;;;1.80;1.20;;;;;;;;;;106547;1256;60457;-54
2023/04/05 09:44:49;;;;;;;1.50;1.40;;;;;;;;;;105619;1251;60447;-53
2023/04/05 09:47:17;;;;;;;1.30;1.00;;;;;;;;;;105678;1253;62190;-52
2023/04/05 09:49:45;;;;;;;1.30;1.00;;;;;;;;;;105950;1256;60286;-53
2023/04/05 09:52:22;;;;;;;1.30;1.10;;;;;;;;;;105802;1257;60750;-51
2023/04/05 09:54:55;;;;;;;1.90;1.30;;;;;;;;;;105831;1253;58968;-53
2023/04/05 09:57:26;;;;;;;1.10;1.00;;;;;;;;;;105755;1257;60408;-53
2023/04/05 09:59:55;;;;;;;1.20;1.00;;;;;;;;;;105718;1252;62179;-51
2023/04/05 10:02:23;;;;;;;1.10;0.80;;;;;;;;;;108200;1256;60201;-51
2023/04/05 10:04:51;;;;;;;0.90;0.80;;;;;;;;;;106782;1257;60724;-52
2023/04/05 10:07:19;;;;;;;0.90;0.80;;;;;;;;;;106541;1260;59320;-52
2023/04/05 10:09:48;;;;;;;1.10;0.80;;;;;;;;;;106057;1252;60446;-53
2023/04/05 10:12:20;;;;;;;0.80;0.70;;;;;;;;;;106085;1254;62192;-52
2023/04/05 10:14:48;;;;;;;2.00;0.70;;;;;;;;;;109079;1256;59338;-54
2023/04/05 10:17:25;;;;;;;1.00;0.90;;;;;;;;;;106361;1257;61251;-51
2023/04/05 10:19:58;;;;;;;0.80;0.80;;;;;;;;;;106945;1251;60465;-47
2023/04/05 10:22:32;;;;;;;1.00;0.80;;;;;;;;;;105785;1252;60294;-50
2023/04/05 10:25:04;;;;;;;1.60;0.90;;;;;;;;;;106686;1256;61078;-51
2023/04/05 10:27:34;;;;;;;1.30;0.80;;;;;;;;;;105665;1255;60543;-53
2023/04/05 10:30:07;;;;;;;1.10;1.00;;;;;;;;;;105521;1252;61306;-53
2023/04/05 10:32:37;;;;;;;1.80;0.80;;;;;;;;;;105856;1252;60569;-53
2023/04/05 10:35:10;;;;;;;1.20;1.00;;;;;;;;;;105670;1251;60427;-53
2023/04/05 10:37:38;;;;;;;1.30;0.80;;;;;;;;;;105485;1251;61205;-54
2023/04/05 10:40:06;;;;;;;1.30;0.80;;;;;;;;;;106045;1257;60408;-52
2023/04/05 10:42:42;;;;;;;1.00;0.90;;;;;;;;;;105457;1251;60434;-52
2023/04/05 10:45:15;;;;;;;1.20;1.10;;;;;;;;;;107818;1253;59225;-51
2023/04/05 10:47:58;;;;;;;1.40;1.00;;;;;;;;;;105746;1257;60405;-51
2023/04/05 10:50:28;;;;;;;1.30;0.90;;;;;;;;;;105932;1251;61243;-51
2023/04/05 10:52:56;;;;;;;1.30;1.00;;;;;;;;;;107565;1251;59093;-51
2023/04/05 10:55:23;;;;;;;1.30;0.90;;;;;;;;;;105568;1257;60588;-52
2023/04/05 10:57:52;;;;;;;1.00;0.90;;;;;;;;;;105868;1257;60396;-52
2023/04/05 11:00:21;;;;;;;1.40;1.00;;;;;;;;;;109273;1251;58801;-52
2023/04/05 11:02:52;;;;;;;3.20;1.60;;;;;;;;;;109117;1251;61592;-52
2023/04/05 11:05:27;;;;;;;1.90;1.30;;;;;;;;;;109146;1251;58165;-54
2023/04/05 11:07:55;;;;;;;;;;;;;;;;;;109256;1251;59787;-52
2023/04/05 11:10:28;;;;;;;2.60;1.80;;;;;;;;;;109272;1251;58670;-53
2023/04/05 11:12:56;;;;;;;3.30;1.70;;;;;;;;;;109209;1254;58177;-53
2023/04/05 11:15:24;;;;;;;6.40;2.40;;;;;;;;;;109262;1251;60960;-53
2023/04/05 11:18:00;;;;;;;1.70;1.40;;;;;;;;;;109341;1251;60017;-54
2023/04/05 11:20:50;;;;;;;1.50;1.30;;;;;;;;;;109380;1251;60056;-53
2023/04/05 11:23:18;;;;;;;3.40;1.50;;;;;;;;;;109267;1251;58427;-53
2023/04/05 11:25:54;;;;;;;2.10;1.50;;;;;;;;;;108274;1251;60414;-52
2023/04/05 11:28:23;;;;;;;2.20;1.60;;;;;;;;;;105732;1258;60869;-51
2023/04/05 11:30:57;;;;;;;3.00;1.80;;;;;;;;;;105587;1254;60418;-52
2023/04/05 11:33:36;;;;;;;2.20;1.40;;;;;;;;;;106894;1251;60470;-49
2023/04/05 11:36:03;;;;;;;3.60;1.40;;;;;;;;;;108311;1252;60482;-51
2023/04/05 11:38:32;;;;;;;2.60;2.30;;;;;;;;;;105708;1251;60590;-49
2023/04/05 11:41:16;;;;;;;2.90;2.30;;;;;;;;;;105686;1251;63063;-50
2023/04/05 11:43:46;;;;;;;2.20;2.00;;;;;;;;;;106046;1256;60345;-51
2023/04/05 11:46:14;;;;;;;2.80;1.90;;;;;;;;;;105068;1251;60741;-51
2023/04/05 11:48:42;;;;;;;2.20;2.00;;;;;;;;;;105050;1251;60421;-48
2023/04/05 11:51:10;;;;;;;2.60;2.20;;;;;;;;;;105493;1251;60318;-48
2023/04/05 11:53:38;;;;;;;4.30;2.80;;;;;;;;;;108159;1255;61864;-49
2023/04/05 11:56:08;;;;;;;2.80;2.60;;;;;;;;;;105680;1256;60681;-48
2023/04/05 11:58:36;;;;;;;2.90;2.70;;;;;;;;;;105650;1257;61789;-51
2023/04/05 12:01:05;;;;;;;3.00;2.20;;;;;;;;;;105720;1257;60534;-45
2023/04/05 12:03:35;;;;;;;2.30;2.10;;;;;;;;;;105967;1252;60639;-50
2023/04/05 12:06:04;;;;;;;3.00;2.70;;;;;;;;;;108362;1254;60899;-47
2023/04/05 12:08:39;;;;;;;3.50;3.20;;;;;;;;;;105794;1257;60418;-46
2023/04/05 12:11:08;;;;;;;3.70;3.10;;;;;;;;;;105852;1256;60752;-53
2023/04/05 12:13:37;;;;;;;2.00;1.80;;;;;;;;;;105667;1251;61995;-52
2023/04/05 12:16:06;;;;;;;2.30;1.70;;;;;;;;;;108383;1251;58747;-51
2023/04/05 12:18:34;;;;;;;4.30;3.20;;;;;;;;;;105487;1257;62640;-52
2023/04/05 12:21:03;;;;;;;3.00;2.70;;;;;;;;;;105038;1251;60797;-51
2023/04/05 12:23:35;;;;;;;2.50;2.20;;;;;;;;;;106320;1251;60414;-47
2023/04/05 12:26:05;;;;;;;2.50;2.30;;;;;;;;;;107825;1251;60559;-49
2023/04/05 12:28:50;;;;;;;2.40;2.20;;;;;;;;;;105713;1251;60505;-49
2023/04/05 12:31:36;;;;;;;2.20;2.10;;;;;;;;;;105566;1251;62146;-47
2023/04/05 12:34:04;;;;;;;2.50;2.30;;;;;;;;;;105783;1251;60389;-52
2023/04/05 12:36:33;;;;;;;2.50;2.40;;;;;;;;;;106157;1256;60575;-47
2023/04/05 12:39:08;;;;;;;2.70;2.40;;;;;;;;;;105803;1257;60293;-48
2023/04/05 12:41:36;;;;;;;6.90;3.70;;;;;;;;;;105844;1251;60440;-51
2023/04/05 12:44:05;;;;;;;3.30;2.20;;;;;;;;;;105847;1257;60804;-50
2023/04/05 12:46:40;;;;;;;2.60;2.40;;;;;;;;;;105867;1255;60329;-48
2023/04/05 12:49:08;;;;;;;;;;;;;;;;;;105646;1251;60565;-47
2023/04/05 12:51:36;;;;;;;3.20;2.90;;;;;;;;;;105750;1257;60337;-48
2023/04/05 12:54:04;;;;;;;2.20;2.00;;;;;;;;;;106453;1256;60425;-48
2023/04/05 12:56:32;;;;;;;3.00;2.80;;;;;;;;;;105974;1257;62307;-48
2023/04/05 12:59:00;;;;;;;3.40;2.80;;;;;;;;;;105865;1257;60290;-46
2023/04/05 13:01:29;;;;;;;2.30;2.20;;;;;;;;;;105706;1256;62218;-46
2023/04/05 13:04:00;;;;;;;2.50;2.30;;;;;;;;;;105887;1256;60521;-50
2023/04/05 13:06:46;;;;;;;2.40;2.30;;;;;;;;;;106480;1251;60428;-53
2023/04/05 13:09:14;;;;;;;2.80;2.50;;;;;;;;;;106090;1251;61024;-50
2023/04/05 13:11:42;;;;;;;2.20;2.10;;;;;;;;;;105726;1257;60432;-48
2023/04/05 13:14:12;;;;;;;3.80;2.50;;;;;;;;;;105621;1251;60599;-48
2023/04/05 13:16:42;;;;;;;2.60;2.40;;;;;;;;;;105711;1256;60376;-49
2023/04/05 13:19:10;;;;;;;2.20;2.00;;;;;;;;;;107174;1251;60417;-49
2023/04/05 13:21:40;;;;;;;2.90;2.70;;;;;;;;;;105753;1251;62166;-48
2023/04/05 13:24:07;;;;;;;4.10;3.20;;;;;;;;;;106277;1257;60435;-46
2023/04/05 13:26:43;;;;;;;3.50;3.20;;;;;;;;;;105737;1251;60993;-47
2023/04/05 13:29:11;;;;;;;2.90;2.70;;;;;;;;;;105892;1258;60764;-50
2023/04/05 13:31:39;;;;;;;2.30;2.00;;;;;;;;;;105714;1252;60335;-52
2023/04/05 13:34:08;;;;;;;3.50;2.40;;;;;;;;;;105691;1255;61879;-51
2023/04/05 13:36:36;;;;;;;2.90;2.70;;;;;;;;;;106272;1256;60412;-52
2023/04/05 13:39:05;;;;;;;3.50;3.20;;;;;;;;;;105955;1257;60654;-52
2023/04/05 13:41:33;;;;;;;2.70;2.50;;;;;;;;;;105862;1251;60556;-52
2023/04/05 13:44:01;;;;;;;2.80;2.60;;;;;;;;;;106593;1251;60580;-51
2023/04/05 13:46:34;;;;;;;3.90;2.80;;;;;;;;;;105796;1251;62083;-52
2023/04/05 13:49:02;;;;;;;3.50;2.70;;;;;;;;;;106043;1256;60398;-52
2023/04/05 13:51:33;;;;;;;2.50;2.20;;;;;;;;;;105840;1251;61019;-52
2023/04/05 13:54:01;;;;;;;2.30;2.10;;;;;;;;;;109324;1251;58359;-51
2023/04/05 13:56:33;;;;;;;2.60;2.00;;;;;;;;;;109268;1251;58111;-51
2023/04/05 13:59:01;;;;;;;3.10;2.80;;;;;;;;;;109333;1251;62069;-51
2023/04/05 14:01:29;;;;;;;3.30;3.10;;;;;;;;;;109351;1251;58414;-51
2023/04/05 14:03:57;;;;;;;3.50;2.80;;;;;;;;;;109374;1251;60451;-51
2023/04/05 14:06:26;;;;;;;2.40;2.20;;;;;;;;;;109374;1251;58364;-51
2023/04/05 14:08:54;;;;;;;2.00;1.80;;;;;;;;;;109352;1251;58992;-51
2023/04/05 14:11:22;;;;;;;2.70;2.50;;;;;;;;;;109374;1251;62006;-52
2023/04/05 14:13:50;;;;;;;2.00;1.80;;;;;;;;;;109363;1251;58517;-53
2023/04/05 14:16:19;;;;;;;4.70;2.90;;;;;;;;;;109377;1251;59701;-52
2023/04/05 14:18:47;;;;;;;3.40;3.20;;;;;;;;;;109390;1251;58611;-51
2023/04/05 14:21:15;;;;;;;3.50;3.10;;;;;;;;;;109368;1251;58383;-52
2023/04/05 14:23:43;;;;;;;2.70;2.50;;;;;;;;;;107931;1251;62464;-51
2023/04/05 14:26:11;;;;;;;3.10;2.90;;;;;;;;;;105767;1257;60290;-52
2023/04/05 14:28:39;;;;;;;5.00;3.90;;;;;;;;;;109305;1251;60776;-52
2023/04/05 14:31:09;;;;;;;3.80;3.50;;;;;;;;;;109378;1251;58147;-52
2023/04/05 14:33:37;;;;;;;2.80;2.70;;;;;;;;;;109293;1251;58571;-51
2023/04/05 14:36:05;;;;;;;4.00;3.70;;;;;;;;;;109374;1251;61492;-52
2023/04/05 14:38:36;;;;;;;4.40;4.00;;;;;;;;;;107724;1251;60369;-51
2023/04/05 14:41:05;;;;;;;4.40;3.90;;;;;;;;;;105582;1257;60421;-52
2023/04/05 14:43:33;;;;;;;4.20;3.90;;;;;;;;;;106604;1257;60655;-52
2023/04/05 14:46:00;;;;;;;3.80;3.50;;;;;;;;;;105654;1257;60428;-54
2023/04/05 14:48:30;;;;;;;3.60;3.30;;;;;;;;;;106003;1251;62471;-52
2023/04/05 14:51:00;;;;;;;4.30;4.00;;;;;;;;;;105685;1253;60510;-52